Time;durP1;ratioP1;P1;durP2;ratioP2;P2;SDS_P1;SDS_P2;PMS_P1;PMS_P2;Temp;Humidity;BMP_temperature;BMP_pressure;BME280_temperature;BME280_humidity;BME280_pressure;Samples;Min_cycle;Max_cycle;Signal;HPM_P1;HPM_P2
2023/08/31 00:00:09;;;;;;;1.20;0.52;;;;;;;16.93;60.11;99010.00;5312255;26;20040;-91
2023/08/31 00:02:35;;;;;;;0.50;0.50;;;;;;;16.84;60.09;99006.22;5312074;26;20113;-93
2023/08/31 00:05:00;;;;;;;0.08;0.08;;;;;;;16.91;60.09;99013.69;5311859;26;20091;-93
2023/08/31 00:07:25;;;;;;;0.10;0.10;;;;;;;16.99;60.10;99012.19;5311710;26;20443;-91
2023/08/31 00:09:51;;;;;;;0.35;0.35;;;;;;;17.13;60.11;99016.47;5312047;26;20481;-92
2023/08/31 00:12:16;;;;;;;0.50;0.50;;;;;;;17.07;60.11;99007.25;5311669;26;20420;-94
2023/08/31 00:14:42;;;;;;;0.20;0.20;;;;;;;17.17;60.12;99010.91;5329995;26;20103;-93
2023/08/31 00:17:07;;;;;;;1.98;1.02;;;;;;;17.07;60.10;99009.03;5311242;26;20086;-93
2023/08/31 00:19:33;;;;;;;0.20;0.20;;;;;;;17.18;60.11;99017.00;5311822;26;20082;-92
2023/08/31 00:21:58;;;;;;;0.70;0.68;;;;;;;17.03;60.11;99008.38;5311740;26;20107;-93
2023/08/31 00:24:28;;;;;;;0.00;0.00;;;;;;;16.90;60.10;99004.09;5311461;26;20437;-92
2023/08/31 00:26:53;;;;;;;0.37;0.37;;;;;;;16.93;60.09;99004.72;5313189;26;20066;-92
2023/08/31 00:29:19;;;;;;;0.15;0.13;;;;;;;17.27;60.12;99008.47;5312100;26;20056;-93
2023/08/31 00:31:45;;;;;;;0.70;0.70;;;;;;;16.99;60.10;99022.69;5312570;26;20064;-93
2023/08/31 00:34:11;;;;;;;0.55;0.55;;;;;;;17.21;60.11;99013.31;5330816;26;20069;-93
2023/08/31 00:36:38;;;;;;;0.25;0.25;;;;;;;17.01;60.11;99012.06;5312824;26;20087;-93
2023/08/31 00:39:08;;;;;;;0.15;0.15;;;;;;;17.04;60.11;99019.78;5330933;26;20101;-92
2023/08/31 00:41:34;;;;;;;8.68;3.30;;;;;;;17.32;60.13;99016.88;5313056;26;20113;-93
2023/08/31 00:43:59;;;;;;;1.98;0.55;;;;;;;17.30;60.12;99015.31;5312438;26;20059;-92
2023/08/31 00:46:27;;;;;;;0.88;0.62;;;;;;;17.16;60.12;99016.25;5311837;26;20100;-92
2023/08/31 00:48:53;;;;;;;0.80;0.80;;;;;;;17.19;60.11;99014.25;5312949;26;20679;-92
2023/08/31 00:51:19;;;;;;;0.50;0.50;;;;;;;17.31;60.12;99014.34;5312025;26;20641;-93
2023/08/31 00:53:48;;;;;;;0.47;0.47;;;;;;;17.33;60.12;99012.44;5312255;26;20110;-92
2023/08/31 00:56:14;;;;;;;0.43;0.43;;;;;;;17.22;60.11;99012.34;5313276;26;20020;-91
2023/08/31 00:58:40;;;;;;;0.43;0.25;;;;;;;17.26;60.12;99022.53;5312334;26;20150;-91
2023/08/31 01:01:17;;;;;;;9.05;1.00;;;;;;;17.27;60.12;99019.00;5312460;26;20056;-92
2023/08/31 01:03:58;;;;;;;2.28;0.80;;;;;;;17.32;60.12;99019.50;5349142;26;20135;-92
2023/08/31 01:06:32;;;;;;;0.10;0.10;;;;;;;17.35;60.13;99029.78;5348905;26;20063;-92
2023/08/31 01:09:10;;;;;;;0.98;0.95;;;;;;;17.15;60.11;99027.72;5349204;26;20082;-92
2023/08/31 01:11:45;;;;;;;1.08;0.43;;;;;;;17.17;60.12;99023.22;5313799;26;20059;-92
2023/08/31 01:14:13;;;;;;;0.15;0.15;;;;;;;17.05;60.10;99024.94;5312862;26;20063;-92
2023/08/31 01:16:39;;;;;;;3.95;1.08;;;;;;;17.07;60.11;99035.34;5311865;26;20066;-93
2023/08/31 01:19:07;;;;;;;1.02;0.55;;;;;;;17.05;60.11;99039.84;5312002;26;20345;-92
2023/08/31 01:21:42;;;;;;;0.60;0.60;;;;;;;17.02;60.11;99026.91;5312265;26;20056;-91
2023/08/31 01:24:08;;;;;;;0.55;0.55;;;;;;;17.10;60.12;99030.69;5331017;26;20066;-91
2023/08/31 01:26:33;;;;;;;1.05;0.50;;;;;;;17.22;60.12;99030.75;5312266;26;20068;-90
2023/08/31 01:28:59;;;;;;;0.50;0.45;;;;;;;17.28;60.12;99041.72;5312141;26;20084;-92
2023/08/31 01:31:24;;;;;;;0.00;0.00;;;;;;;17.28;60.12;99039.09;5312063;26;20095;-92
2023/08/31 01:33:51;;;;;;;1.10;0.95;;;;;;;17.32;60.12;99044.97;5312108;26;20119;-91
2023/08/31 01:36:25;;;;;;;0.52;0.28;;;;;;;17.28;60.12;99041.72;5312239;26;20067;-91
2023/08/31 01:39:04;;;;;;;0.15;0.15;;;;;;;17.36;60.12;99044.62;5312629;26;20044;-93
2023/08/31 01:41:30;;;;;;;0.13;0.13;;;;;;;17.52;60.13;99035.66;5313519;26;20630;-93
2023/08/31 01:43:55;;;;;;;0.00;0.00;;;;;;;17.54;60.12;99028.50;5312054;26;20064;-92
2023/08/31 01:46:21;;;;;;;0.25;0.25;;;;;;;17.57;60.14;99029.09;5312032;26;20137;-93
2023/08/31 01:48:46;;;;;;;0.20;0.20;;;;;;;17.57;60.13;99037.00;5311848;26;20067;-92
2023/08/31 01:51:12;;;;;;;0.03;0.03;;;;;;;17.54;60.13;99041.66;5311956;26;20112;-92
2023/08/31 01:53:37;;;;;;;0.88;0.70;;;;;;;17.58;60.14;99035.22;5311968;26;20385;-92
2023/08/31 01:56:04;;;;;;;0.73;0.57;;;;;;;17.44;60.12;99034.41;5311755;26;20060;-92
2023/08/31 01:58:30;;;;;;;0.00;0.00;;;;;;;17.54;60.13;99036.38;5312262;26;20067;-93
2023/08/31 02:00:56;;;;;;;1.08;0.55;;;;;;;17.45;60.12;99032.59;5311571;26;20099;-94
2023/08/31 02:03:22;;;;;;;0.20;0.20;;;;;;;17.58;60.14;99033.41;5312182;26;20058;-92
2023/08/31 02:05:47;;;;;;;0.10;0.10;;;;;;;17.51;60.13;99037.44;5311693;26;20096;-93
2023/08/31 02:08:16;;;;;;;0.70;0.70;;;;;;;17.43;60.12;99035.34;5329960;26;20104;-95
2023/08/31 02:10:41;;;;;;;0.43;0.43;;;;;;;17.50;60.13;99030.47;5312630;26;20024;-93
2023/08/31 02:13:06;;;;;;;0.00;0.00;;;;;;;17.45;60.13;99035.22;5311826;26;20106;-93
2023/08/31 02:15:32;;;;;;;8.35;1.83;;;;;;;17.43;60.12;99024.81;5311000;26;23189;-93
2023/08/31 02:17:57;;;;;;;0.30;0.30;;;;;;;17.42;60.13;99035.44;5311805;26;20392;-93
2023/08/31 02:20:23;;;;;;;1.80;1.02;;;;;;;17.73;60.14;99034.94;5311122;26;21975;-93
2023/08/31 02:22:50;;;;;;;0.32;0.32;;;;;;;17.40;60.13;99038.19;5311917;26;20060;-94
2023/08/31 02:25:16;;;;;;;1.45;0.37;;;;;;;17.28;60.12;99039.09;5311769;26;20373;-93
2023/08/31 02:27:42;;;;;;;0.25;0.25;;;;;;;17.22;60.11;99043.91;5312770;26;20111;-93
2023/08/31 02:30:08;;;;;;;1.05;1.02;;;;;;;17.13;60.11;99055.94;5312622;26;20070;-94
2023/08/31 02:32:33;;;;;;;0.10;0.10;;;;;;;17.12;60.11;99054.25;5331396;26;20123;-93
2023/08/31 02:34:59;;;;;;;0.82;0.82;;;;;;;17.22;60.12;99052.66;5312558;26;20067;-93
2023/08/31 02:37:24;;;;;;;0.20;0.20;;;;;;;17.20;60.11;99046.66;5312786;26;20063;-93
2023/08/31 02:39:50;;;;;;;0.10;0.10;;;;;;;17.19;60.12;99043.19;5312649;26;20445;-93
2023/08/31 02:42:15;;;;;;;0.45;0.32;;;;;;;17.01;60.11;99046.25;5312275;26;20072;-93
2023/08/31 02:44:40;;;;;;;0.17;0.17;;;;;;;17.13;60.11;99055.94;5312534;26;20095;-94
2023/08/31 02:47:06;;;;;;;0.50;0.50;;;;;;;17.07;60.10;99059.84;5312377;26;20068;-94
2023/08/31 02:49:31;;;;;;;1.65;0.32;;;;;;;16.95;60.11;99059.81;5312589;26;20145;-93
2023/08/31 02:51:57;;;;;;;1.15;0.98;;;;;;;17.03;60.11;99060.12;5311796;26;29075;-94
2023/08/31 02:54:22;;;;;;;0.32;0.08;;;;;;;17.05;60.11;99055.63;5312461;26;20103;-93
2023/08/31 02:56:47;;;;;;;0.37;0.30;;;;;;;16.93;60.09;99056.47;5312013;26;25433;-93
2023/08/31 02:59:13;;;;;;;0.65;0.65;;;;;;;16.89;60.10;99055.84;5312618;26;20076;-93
2023/08/31 03:01:39;;;;;;;0.30;0.30;;;;;;;17.01;60.11;99054.13;5312826;26;20389;-94
2023/08/31 03:04:05;;;;;;;0.40;0.30;;;;;;;16.97;60.11;99047.41;5312660;26;20056;-94
2023/08/31 03:06:32;;;;;;;0.20;0.20;;;;;;;16.81;60.09;99047.66;5331165;26;20427;-94
2023/08/31 03:08:58;;;;;;;0.20;0.20;;;;;;;16.81;60.09;99045.88;5312916;26;20064;-93
2023/08/31 03:11:23;;;;;;;0.08;0.08;;;;;;;16.76;60.09;99047.94;5312756;26;20064;-93
2023/08/31 03:13:48;;;;;;;0.50;0.50;;;;;;;16.78;60.09;99053.09;5312482;26;20400;-94
2023/08/31 03:16:14;;;;;;;2.08;1.50;;;;;;;16.61;60.08;99051.59;5312736;26;20448;-93
2023/08/31 03:18:39;;;;;;;0.00;0.00;;;;;;;16.84;60.09;99044.81;5312644;26;20090;-94
2023/08/31 03:21:05;;;;;;;0.15;0.15;;;;;;;16.74;60.09;99051.62;5311904;26;20110;-93
2023/08/31 03:23:30;;;;;;;0.80;0.30;;;;;;;16.74;60.09;99052.47;5312250;26;20075;-93
2023/08/31 03:25:55;;;;;;;0.30;0.30;;;;;;;16.73;60.09;99050.78;5312190;26;20413;-94
2023/08/31 03:28:21;;;;;;;0.10;0.10;;;;;;;16.61;60.08;99051.59;5330601;26;20709;-93
2023/08/31 03:30:54;;;;;;;0.20;0.20;;;;;;;16.69;60.09;99062.47;5312405;26;20390;-93
2023/08/31 03:33:19;;;;;;;0.05;0.05;;;;;;;16.66;60.09;99056.53;5312525;26;20059;-94
2023/08/31 03:35:45;;;;;;;0.20;0.20;;;;;;;16.69;60.08;99070.34;5312376;26;20376;-94
2023/08/31 03:38:10;;;;;;;1.85;1.12;;;;;;;16.65;60.09;99063.59;5330693;26;20075;-94
2023/08/31 03:40:36;;;;;;;0.10;0.10;;;;;;;16.76;60.09;99076.84;5312311;26;20056;-93
2023/08/31 03:43:01;;;;;;;0.22;0.22;;;;;;;16.78;60.10;99072.34;5312326;26;20099;-92
2023/08/31 03:45:26;;;;;;;0.10;0.10;;;;;;;16.91;60.10;99068.88;5311859;26;20404;-90
2023/08/31 03:47:52;;;;;;;0.05;0.05;;;;;;;16.99;60.10;99071.81;5312184;26;20060;-92
2023/08/31 03:50:18;;;;;;;0.00;0.00;;;;;;;17.11;60.11;99065.72;5312396;26;20063;-92
2023/08/31 03:52:43;;;;;;;0.85;0.75;;;;;;;17.20;60.11;99062.44;5330896;26;20052;-92
2023/08/31 03:55:09;;;;;;;0.10;0.10;;;;;;;17.36;60.12;99068.31;5312027;26;20083;-92
2023/08/31 03:57:35;;;;;;;0.00;0.00;;;;;;;17.17;60.12;99068.75;5312339;26;20056;-91
2023/08/31 04:00:00;;;;;;;0.37;0.37;;;;;;;17.13;60.11;99064.66;5305397;26;115281;-93
2023/08/31 04:02:26;;;;;;;0.13;0.13;;;;;;;17.27;60.12;99066.34;5296274;26;20108;-92
2023/08/31 04:04:51;;;;;;;0.70;0.62;;;;;;;17.33;60.12;99067.69;5312214;26;20083;-93
2023/08/31 04:07:16;;;;;;;0.62;0.57;;;;;;;17.22;60.11;99065.78;5311858;26;20104;-91
2023/08/31 04:09:42;;;;;;;0.28;0.28;;;;;;;17.24;60.11;99073.56;5312024;26;20063;-94
2023/08/31 04:12:07;;;;;;;0.70;0.40;;;;;;;17.14;60.11;99071.59;5311922;26;20078;-92
2023/08/31 04:14:33;;;;;;;0.25;0.25;;;;;;;17.21;60.11;99072.00;5311391;26;21500;-93
2023/08/31 04:16:58;;;;;;;0.47;0.47;;;;;;;17.10;60.11;99083.28;5311848;26;20056;-93
2023/08/31 04:19:23;;;;;;;0.28;0.10;;;;;;;16.93;60.09;99083.59;5312017;26;20110;-91
2023/08/31 04:21:49;;;;;;;2.50;0.77;;;;;;;16.77;60.09;99094.31;5312020;26;20108;-92
2023/08/31 04:24:14;;;;;;;0.28;0.28;;;;;;;16.80;60.10;99093.28;5312087;26;20059;-91
2023/08/31 04:26:40;;;;;;;0.10;0.10;;;;;;;16.68;60.08;99094.94;5311937;26;20096;-91
2023/08/31 04:29:05;;;;;;;0.37;0.37;;;;;;;16.96;60.11;99098.31;5312391;26;20115;-91
2023/08/31 04:31:32;;;;;;;0.10;0.10;;;;;;;17.05;60.11;99095.06;5312190;26;20100;-91
2023/08/31 04:33:57;;;;;;;0.55;0.47;;;;;;;17.32;60.12;99101.03;5312443;26;20420;-91
2023/08/31 04:36:22;;;;;;;0.05;0.05;;;;;;;17.11;60.11;99116.53;5311628;26;23020;-91
2023/08/31 04:38:48;;;;;;;0.50;0.50;;;;;;;17.00;60.10;99115.56;5310946;26;25622;-91
2023/08/31 04:41:14;;;;;;;0.17;0.17;;;;;;;17.03;60.11;99120.59;5312176;26;20051;-91
2023/08/31 04:43:39;;;;;;;0.50;0.50;;;;;;;17.10;60.11;99116.63;5312378;26;20404;-91
2023/08/31 04:46:05;;;;;;;0.37;0.37;;;;;;;17.08;60.10;99121.16;5311752;26;20064;-91
2023/08/31 04:48:30;;;;;;;0.00;0.00;;;;;;;17.08;60.10;99124.63;5311949;26;20115;-91
2023/08/31 04:50:57;;;;;;;0.20;0.20;;;;;;;17.26;60.12;99122.50;5311096;26;20103;-92
2023/08/31 04:53:22;;;;;;;0.17;0.17;;;;;;;17.12;60.10;99125.25;5312139;26;20024;-91
2023/08/31 04:55:47;;;;;;;0.00;0.00;;;;;;;17.48;60.13;99120.06;5311933;26;20060;-92
2023/08/31 04:58:13;;;;;;;1.73;0.80;;;;;;;17.32;60.12;99124.72;5311695;26;20213;-91
2023/08/31 05:00:39;;;;;;;0.55;0.55;;;;;;;17.38;60.12;99121.66;5330232;26;20091;-91
2023/08/31 05:03:04;;;;;;;0.28;0.28;;;;;;;17.38;60.12;99128.72;5311440;26;20055;-92
2023/08/31 05:05:30;;;;;;;0.00;0.00;;;;;;;17.48;60.13;99125.31;5311481;26;20074;-92
2023/08/31 05:07:55;;;;;;;0.08;0.08;;;;;;;17.45;60.12;99135.22;5311473;26;20055;-93
2023/08/31 05:10:21;;;;;;;0.00;0.00;;;;;;;17.32;60.12;99140.50;5311972;26;20065;-91
2023/08/31 05:12:46;;;;;;;0.00;0.00;;;;;;;17.46;60.14;99145.63;5311863;26;20048;-92
2023/08/31 05:15:12;;;;;;;0.47;0.47;;;;;;;17.27;60.12;99149.63;5311528;26;20117;-91
2023/08/31 05:17:37;;;;;;;0.43;0.43;;;;;;;17.29;60.11;99150.41;5311741;26;20107;-92
2023/08/31 05:20:04;;;;;;;1.20;1.10;;;;;;;17.54;60.13;99150.38;5311081;26;20068;-91
2023/08/31 05:22:29;;;;;;;0.37;0.37;;;;;;;17.55;60.13;99153.84;5330211;26;20101;-92
2023/08/31 05:24:55;;;;;;;0.00;0.00;;;;;;;17.79;60.15;99157.41;5311457;26;20115;-91
2023/08/31 05:27:21;;;;;;;1.90;0.65;;;;;;;17.81;60.15;99155.50;5311860;26;20104;-92
2023/08/31 05:29:46;;;;;;;0.00;0.00;;;;;;;17.76;60.14;99158.47;5311461;26;20400;-93
2023/08/31 05:32:12;;;;;;;0.22;0.22;;;;;;;17.90;60.15;99165.38;5311713;26;20091;-92
2023/08/31 05:34:39;;;;;;;0.10;0.10;;;;;;;17.89;60.15;99161.06;5311584;26;20068;-92
2023/08/31 05:37:04;;;;;;;0.17;0.15;;;;;;;17.79;60.15;99178.47;5311939;26;20060;-92
2023/08/31 05:39:30;;;;;;;1.10;0.85;;;;;;;17.87;60.15;99170.03;5311385;26;20051;-92
2023/08/31 05:41:55;;;;;;;0.40;0.40;;;;;;;17.96;60.15;99172.00;5311137;26;20099;-92
2023/08/31 05:44:21;;;;;;;0.10;0.10;;;;;;;17.95;60.15;99173.78;5310852;26;24256;-91
2023/08/31 05:46:47;;;;;;;1.02;0.98;;;;;;;18.10;60.17;99177.97;5311849;26;20070;-91
2023/08/31 05:49:12;;;;;;;1.60;0.40;;;;;;;18.21;60.16;99178.97;5311502;26;20113;-91
2023/08/31 05:51:38;;;;;;;0.30;0.30;;;;;;;18.22;60.16;99178.87;5311187;26;20052;-92
2023/08/31 05:54:03;;;;;;;0.28;0.28;;;;;;;18.40;60.18;99174.88;5311374;26;20130;-91
2023/08/31 05:56:29;;;;;;;0.00;0.00;;;;;;;18.55;60.19;99182.62;5311157;26;20077;-91
2023/08/31 05:58:55;;;;;;;0.08;0.08;;;;;;;18.62;60.18;99186.50;5330341;26;20055;-92
2023/08/31 06:01:22;;;;;;;0.10;0.10;;;;;;;18.70;60.20;99189.44;5311915;26;20016;-91
2023/08/31 06:03:48;;;;;;;0.30;0.30;;;;;;;18.92;60.21;99197.41;5312650;26;20618;-91
2023/08/31 06:06:13;;;;;;;0.30;0.30;;;;;;;18.85;60.21;99198.84;5312297;26;20082;-91
2023/08/31 06:08:39;;;;;;;0.70;0.25;;;;;;;18.95;60.21;99206.91;5312370;26;20107;-91
2023/08/31 06:11:04;;;;;;;0.00;0.00;;;;;;;19.15;60.21;99200.94;5312386;26;20068;-92
2023/08/31 06:13:31;;;;;;;0.25;0.25;;;;;;;19.38;60.24;99204.47;5312110;26;20074;-90
2023/08/31 06:15:57;;;;;;;0.00;0.00;;;;;;;19.59;60.24;99205.50;5312218;26;20059;-92
2023/08/31 06:18:34;;;;;;;1.25;0.52;;;;;;;19.56;60.24;99213.66;5331078;26;20062;-94
2023/08/31 06:21:06;;;;;;;0.50;0.50;;;;;;;19.42;60.23;99210.38;5330001;26;20672;-93
2023/08/31 06:27:35;;;;;;;0.22;0.10;;;;;;;19.51;60.24;99221.06;5248935;26;20084;-94
2023/08/31 06:48:30;;;;;;;2.97;0.65;;;;;;;20.11;60.27;99224.31;5284320;26;20076;-93
2023/08/31 06:50:56;;;;;;;4.68;2.53;;;;;;;20.33;60.28;99234.00;5314654;26;20101;-95
2023/08/31 06:56:18;;;;;;;4.47;1.20;;;;;;;20.45;60.28;99235.72;5392218;26;20071;-96
2023/08/31 06:58:44;;;;;;;0.98;0.88;;;;;;;20.44;60.29;99236.69;5340104;26;20079;-96
2023/08/31 07:01:13;;;;;;;0.03;0.03;;;;;;;20.40;60.29;99237.88;5342537;26;20078;-96
2023/08/31 07:03:42;;;;;;;0.10;0.10;;;;;;;20.50;60.29;99249.41;5379487;26;20064;-96
2023/08/31 07:06:22;;;;;;;17.98;1.65;;;;;;;20.56;60.29;99255.97;5365184;26;20038;-95
2023/08/31 07:09:44;;;;;;;1.90;0.10;;;;;;;20.46;60.28;99256.75;5340649;26;20028;-94
2023/08/31 07:12:38;;;;;;;0.00;0.00;;;;;;;20.56;60.30;99259.47;5371698;26;20151;-94
2023/08/31 07:21:52;;;;;;;0.00;0.00;;;;;;;21.26;60.33;99266.94;5305061;26;20128;-94
2023/08/31 07:24:22;;;;;;;0.00;0.00;;;;;;;21.46;60.34;99267.91;5333019;26;20119;-92
2023/08/31 07:26:50;;;;;;;1.67;1.58;;;;;;;21.59;60.34;99260.59;5334148;26;20787;-92
2023/08/31 07:29:45;;;;;;;0.00;0.00;;;;;;;21.32;60.32;99261.16;5334606;26;20027;-95
2023/08/31 07:32:10;;;;;;;0.10;0.10;;;;;;;21.75;60.35;99268.91;5352652;26;20056;-92
2023/08/31 07:34:44;;;;;;;0.30;0.30;;;;;;;21.70;60.35;99272.91;5334662;26;20073;-92
2023/08/31 07:37:14;;;;;;;0.70;0.50;;;;;;;22.00;60.36;99272.09;5335319;26;20026;-93
2023/08/31 07:39:42;;;;;;;1.77;0.85;;;;;;;22.16;60.38;99271.63;5334992;26;20487;-91
2023/08/31 07:42:07;;;;;;;0.10;0.10;;;;;;;22.07;60.37;99277.75;5335035;26;20101;-91
2023/08/31 07:44:35;;;;;;;0.10;0.10;;;;;;;21.99;60.36;99275.72;5333666;26;20111;-91
2023/08/31 07:47:27;;;;;;;;;;;;;;;;;;;;;
2023/08/31 07:50:21;;;;;;;0.22;0.17;;;;;;;22.34;60.39;99270.88;5356403;26;37316;-92
2023/08/31 07:53:48;;;;;;;0.05;0.05;;;;;;;22.52;60.39;99273.72;5353122;26;20685;-93
2023/08/31 07:56:44;;;;;;;0.00;0.00;;;;;;;22.87;60.40;99267.91;5347206;26;20064;-93
2023/08/31 07:59:20;;;;;;;0.30;0.30;;;;;;;23.01;60.41;99268.47;5349305;26;20048;-93
2023/08/31 08:02:36;;;;;;;0.43;0.43;;;;;;;22.83;60.41;99273.62;5349177;26;20118;-93
2023/08/31 08:13:57;;;;;;;0.10;0.10;;;;;;;22.40;60.39;99293.34;5391751;26;20103;-92
2023/08/31 08:16:55;;;;;;;1.08;0.35;;;;;;;22.56;60.39;99292.84;5347669;26;20024;-92
2023/08/31 08:39:13;;;;;;;0.32;0.32;;;;;;;23.34;60.43;99297.25;5391748;26;20761;-91
2023/08/31 08:41:44;;;;;;;2.47;1.55;;;;;;;23.45;60.45;99305.09;5334037;26;20052;-93
2023/08/31 08:44:09;;;;;;;0.00;0.00;;;;;;;23.57;60.46;99296.00;5333863;26;20100;-91
2023/08/31 08:46:52;;;;;;;0.17;0.17;;;;;;;23.72;60.46;99299.03;5334061;26;20047;-95
2023/08/31 08:49:20;;;;;;;0.65;0.57;;;;;;;24.12;60.49;99298.75;5333903;26;20661;-93
2023/08/31 08:51:50;;;;;;;0.73;0.73;;;;;;;24.10;60.48;99297.22;5333372;26;20466;-88
2023/08/31 08:54:17;;;;;;;0.00;0.00;;;;;;;24.32;60.49;99286.25;5333348;26;20060;-91
2023/08/31 08:56:42;;;;;;;0.37;0.25;;;;;;;24.23;60.48;99295.09;5334177;26;20089;-89
2023/08/31 08:59:10;;;;;;;0.00;0.00;;;;;;;24.04;60.47;99303.97;5333558;26;20117;-92
2023/08/31 09:01:37;;;;;;;0.05;0.05;;;;;;;24.41;60.49;99301.34;5333021;26;20075;-91
2023/08/31 09:04:03;;;;;;;0.00;0.00;;;;;;;24.60;60.50;99311.00;5333650;26;20016;-92
2023/08/31 09:06:30;;;;;;;3.62;0.88;;;;;;;24.93;60.52;99311.38;5332297;26;20044;-91
2023/08/31 09:09:01;;;;;;;0.00;0.00;;;;;;;24.92;60.52;99323.88;5333229;26;20159;-92
2023/08/31 09:11:26;;;;;;;0.00;0.00;;;;;;;24.82;60.51;99314.25;5335023;26;20067;-91
2023/08/31 09:13:52;;;;;;;0.08;0.08;;;;;;;24.67;60.50;99313.94;5332915;26;20067;-92
2023/08/31 09:16:28;;;;;;;0.10;0.10;;;;;;;24.66;60.51;99320.25;5369939;26;20060;-93
2023/08/31 09:19:00;;;;;;;0.62;0.47;;;;;;;24.98;60.52;99327.75;5332902;26;20066;-92
2023/08/31 09:21:40;;;;;;;5.95;0.77;;;;;;;25.21;60.54;99329.00;5334368;26;20331;-91
2023/08/31 09:24:10;;;;;;;0.00;0.00;;;;;;;25.23;60.55;99335.00;5333614;26;20052;-91
2023/08/31 09:26:38;;;;;;;;;;;;;;;25.04;60.53;99325.34;5334389;26;20040;-92
2023/08/31 09:29:07;;;;;;;0.00;0.00;;;;;;;25.14;60.54;99322.63;5351292;26;19975;-91
2023/08/31 09:31:33;;;;;;;0.32;0.32;;;;;;;25.15;60.54;99324.28;5332908;26;20056;-91
2023/08/31 09:33:58;;;;;;;0.00;0.00;;;;;;;25.26;60.54;99336.53;5332550;26;20075;-91
2023/08/31 09:36:24;;;;;;;0.00;0.00;;;;;;;25.59;60.56;99332.31;5332610;26;20084;-92
2023/08/31 09:38:49;;;;;;;0.03;0.03;;;;;;;25.71;60.57;99328.44;5333261;26;20063;-91
2023/08/31 09:41:15;;;;;;;0.10;0.00;;;;;;;25.78;60.58;99332.13;5333678;26;20052;-91
2023/08/31 09:43:41;;;;;;;0.00;0.00;;;;;;;26.09;60.58;99332.53;5333359;26;20055;-93
2023/08/31 09:46:06;;;;;;;0.08;0.08;;;;;;;26.21;60.59;99325.06;5333261;26;20127;-90
2023/08/31 09:48:32;;;;;;;0.00;0.00;;;;;;;26.26;60.60;99333.44;5333349;26;20079;-92
2023/08/31 09:50:58;;;;;;;0.08;0.08;;;;;;;25.97;60.58;99345.28;5333619;26;20500;-90
2023/08/31 09:53:27;;;;;;;0.00;0.00;;;;;;;26.26;60.60;99339.63;5333409;26;20071;-93
2023/08/31 09:55:53;;;;;;;0.00;0.00;;;;;;;26.28;60.60;99339.47;5333763;26;20052;-92
2023/08/31 09:58:20;;;;;;;0.00;0.00;;;;;;;26.25;60.60;99351.25;5333888;26;20083;-93
2023/08/31 10:00:48;;;;;;;0.30;0.20;;;;;;;26.52;60.61;99349.44;5333635;26;20443;-90
2023/08/31 10:03:15;;;;;;;0.08;0.08;;;;;;;26.26;60.60;99347.63;5334696;26;20126;-92
2023/08/31 10:05:43;;;;;;;4.22;1.30;;;;;;;25.85;60.57;99354.53;5333699;26;20104;-92
2023/08/31 10:08:09;;;;;;;0.75;0.43;;;;;;;25.68;60.57;99358.91;5352139;26;20128;-91
2023/08/31 10:14:20;;;;;;;0.00;0.00;;;;;;;25.67;60.57;99365.22;5299424;27;20053;-90
2023/08/31 10:16:54;;;;;;;0.00;0.00;;;;;;;25.85;60.57;99367.87;5245699;27;20148;-92
2023/08/31 10:19:45;;;;;;;0.00;0.00;;;;;;;25.76;60.57;99366.13;5322281;26;20060;-92
2023/08/31 10:22:29;;;;;;;0.70;0.43;;;;;;;25.51;60.56;99372.22;5335836;26;20273;-94
2023/08/31 10:25:05;;;;;;;0.00;0.00;;;;;;;25.35;60.55;99367.59;5334723;26;20115;-91
2023/08/31 10:27:54;;;;;;;0.20;0.20;;;;;;;25.43;60.56;99369.50;5335611;26;20021;-93
2023/08/31 10:30:22;;;;;;;0.10;0.10;;;;;;;25.48;60.57;99369.88;5334290;26;20795;-91
2023/08/31 10:33:22;;;;;;;0.00;0.00;;;;;;;25.67;60.57;99370.56;5371381;26;20064;-91
2023/08/31 10:35:48;;;;;;;;;;;;;;;25.44;60.55;99381.81;5352962;26;20051;-89
2023/08/31 10:38:23;;;;;;;0.03;0.03;;;;;;;25.33;60.55;99385.56;5353046;26;19958;-91
2023/08/31 10:43:59;;;;;;;0.73;0.73;;;;;;;25.04;60.54;99386.59;5383988;26;20059;-89
2023/08/31 10:46:28;;;;;;;0.03;0.03;;;;;;;24.89;60.53;99396.06;5335380;26;20055;-89
2023/08/31 10:48:54;;;;;;;5.90;0.43;;;;;;;24.76;60.53;99393.72;5353453;26;20058;-88
2023/08/31 10:51:28;;;;;;;0.32;0.30;;;;;;;24.86;60.53;99395.50;5371913;26;20437;-90
2023/08/31 10:54:07;;;;;;;0.13;0.13;;;;;;;24.85;60.54;99396.50;5335880;26;20028;-89
2023/08/31 10:56:32;;;;;;;0.00;0.00;;;;;;;24.99;60.54;99393.34;5353145;26;20059;-88
2023/08/31 10:58:59;;;;;;;0.57;0.30;;;;;;;25.12;60.54;99396.50;5334481;26;20052;-90
2023/08/31 11:01:55;;;;;;;0.05;0.05;;;;;;;24.71;60.52;99396.00;5334575;26;20063;-88
2023/08/31 11:04:22;;;;;;;0.30;0.28;;;;;;;24.88;60.53;99404.19;5371784;26;20056;-89
2023/08/31 11:06:48;;;;;;;0.00;0.00;;;;;;;25.17;60.55;99399.56;5334386;26;20051;-88
2023/08/31 11:09:20;;;;;;;0.73;0.40;;;;;;;25.25;60.54;99406.78;5334843;26;20065;-88
2023/08/31 11:11:47;;;;;;;0.00;0.00;;;;;;;25.60;60.56;99409.47;5334102;26;20059;-91
2023/08/31 11:14:12;;;;;;;0.40;0.40;;;;;;;25.94;60.59;99406.09;5334298;26;20654;-90
2023/08/31 11:16:40;;;;;;;0.00;0.00;;;;;;;25.89;60.58;99406.56;5333685;26;20110;-91
2023/08/31 11:19:09;;;;;;;0.05;0.05;;;;;;;25.53;60.56;99410.22;5333232;26;20105;-90
2023/08/31 11:21:37;;;;;;;1.83;0.30;;;;;;;25.67;60.57;99415.03;5335054;26;20056;-87
2023/08/31 11:24:02;;;;;;;0.00;0.00;;;;;;;25.50;60.56;99419.34;5333879;26;20063;-90
2023/08/31 11:26:31;;;;;;;0.43;0.25;;;;;;;25.76;60.57;99414.09;5333967;26;20131;-90
2023/08/31 11:28:59;;;;;;;1.55;0.80;;;;;;;25.77;60.58;99413.13;5334444;26;20044;-92
2023/08/31 11:31:27;;;;;;;0.00;0.00;;;;;;;26.16;60.60;99408.25;5334406;26;20119;-91
2023/08/31 11:33:58;;;;;;;0.05;0.00;;;;;;;26.44;60.61;99408.94;5334699;26;20063;-92
2023/08/31 11:36:24;;;;;;;0.10;0.10;;;;;;;26.19;60.60;99407.09;5334085;26;20066;-90
2023/08/31 11:38:57;;;;;;;0.10;0.10;;;;;;;26.31;60.60;99411.19;5334398;26;20051;-91
2023/08/31 11:41:33;;;;;;;0.10;0.10;;;;;;;26.59;60.62;99402.03;5335656;26;20081;-93
2023/08/31 11:43:58;;;;;;;0.00;0.00;;;;;;;26.78;60.63;99395.59;5336313;26;20067;-90
2023/08/31 11:46:24;;;;;;;0.00;0.00;;;;;;;27.17;60.64;99403.91;5333841;26;20313;-88
2023/08/31 11:48:50;;;;;;;0.85;0.75;;;;;;;26.78;60.62;99405.44;5334112;26;20048;-90
2023/08/31 11:51:15;;;;;;;0.10;0.08;;;;;;;26.79;60.64;99401.78;5334103;26;20102;-89
2023/08/31 11:53:41;;;;;;;0.00;0.00;;;;;;;26.75;60.63;99403.94;5334024;26;20107;-88
2023/08/31 11:56:06;;;;;;;0.30;0.30;;;;;;;26.78;60.62;99400.09;5333709;26;20059;-89
2023/08/31 11:58:32;;;;;;;0.00;0.00;;;;;;;26.61;60.62;99399.19;5333284;26;20091;-89
2023/08/31 12:00:58;;;;;;;0.00;0.00;;;;;;;26.71;60.63;99399.06;5333518;26;20078;-88
2023/08/31 12:03:24;;;;;;;0.37;0.37;;;;;;;26.53;60.62;99404.50;5334169;26;20074;-88
2023/08/31 12:05:51;;;;;;;0.30;0.25;;;;;;;26.62;60.62;99406.22;5334393;26;20066;-88
2023/08/31 12:08:23;;;;;;;0.55;0.30;;;;;;;26.51;60.61;99403.84;5334182;26;20047;-88
2023/08/31 12:10:48;;;;;;;0.00;0.00;;;;;;;26.56;60.63;99405.03;5334255;26;20114;-90
2023/08/31 12:13:17;;;;;;;0.05;0.05;;;;;;;26.66;60.62;99402.22;5333889;26;20051;-90
2023/08/31 12:15:42;;;;;;;0.20;0.20;;;;;;;26.76;60.63;99404.78;5334750;26;20051;-90
2023/08/31 12:21:24;;;;;;;1.45;0.88;;;;;;;26.76;60.63;99397.59;5338275;26;20127;-91
2023/08/31 12:24:11;;;;;;;1.35;0.10;;;;;;;26.89;60.64;99397.13;5334085;26;20070;-92
2023/08/31 12:26:39;;;;;;;0.00;0.00;;;;;;;26.95;60.64;99400.97;5335674;26;20062;-90
2023/08/31 12:29:13;;;;;;;0.50;0.50;;;;;;;26.95;60.65;99401.81;5334344;26;20047;-91
2023/08/31 12:31:39;;;;;;;0.00;0.00;;;;;;;26.98;60.64;99401.53;5334597;26;20069;-90
2023/08/31 12:34:06;;;;;;;0.40;0.40;;;;;;;26.74;60.63;99402.28;5334398;26;20079;-90
2023/08/31 12:36:32;;;;;;;0.28;0.20;;;;;;;26.61;60.62;99397.38;5334291;26;20055;-88
2023/08/31 12:39:01;;;;;;;0.30;0.30;;;;;;;26.82;60.64;99396.12;5333905;26;20108;-91
2023/08/31 12:41:29;;;;;;;0.15;0.10;;;;;;;26.90;60.64;99394.28;5334684;26;20063;-91
2023/08/31 12:43:55;;;;;;;0.10;0.10;;;;;;;26.89;60.65;99402.47;5333473;26;20072;-90
2023/08/31 12:46:20;;;;;;;0.35;0.10;;;;;;;26.88;60.64;99390.13;5334100;26;20051;-90
2023/08/31 12:48:46;;;;;;;0.00;0.00;;;;;;;26.81;60.64;99399.78;5334107;26;20087;-89
2023/08/31 12:51:11;;;;;;;0.32;0.32;;;;;;;26.59;60.62;99402.03;5334215;26;20104;-89